Time;durP1;ratioP1;P1;durP2;ratioP2;P2;SDS_P1;SDS_P2;PMS_P1;PMS_P2;Temp;Humidity;BMP_temperature;BMP_pressure;BME280_temperature;BME280_humidity;BME280_pressure;Samples;Min_cycle;Max_cycle;Signal;HPM_P1;HPM_P2
2022/12/07 00:02:00;;;;;;;14.33;9.63;;;;;;;;;;6599300;28;20208;-90
2022/12/07 00:05:10;;;;;;;15.77;11.10;;;;;;;;;;6598846;28;20238;-90
2022/12/07 00:08:20;;;;;;;10.70;8.50;;;;;;;;;;6599563;28;20169;-90
2022/12/07 00:11:31;;;;;;;14.23;11.23;;;;;;;;;;6581288;28;20176;-90
2022/12/07 00:14:41;;;;;;;17.60;12.67;;;;;;;;;;6599386;28;20574;-91
2022/12/07 00:17:51;;;;;;;15.83;10.83;;;;;;;;;;6598966;28;20169;-90
2022/12/07 00:21:06;;;;;;;13.93;10.33;;;;;;;;;;6598393;28;20238;-90
2022/12/07 00:24:16;;;;;;;16.77;11.23;;;;;;;;;;6581503;28;20555;-90
2022/12/07 00:27:27;;;;;;;13.13;9.33;;;;;;;;;;6599412;28;20173;-90
2022/12/07 00:30:37;;;;;;;17.13;10.13;;;;;;;;;;6580762;28;20205;-90
2022/12/07 00:33:48;;;;;;;16.37;10.77;;;;;;;;;;6598792;28;20259;-90
2022/12/07 00:36:58;;;;;;;16.03;10.53;;;;;;;;;;6598763;28;20176;-90
2022/12/07 00:40:10;;;;;;;10.63;8.20;;;;;;;;;;6597749;28;20220;-90
2022/12/07 00:43:20;;;;;;;10.57;8.20;;;;;;;;;;6598210;28;20564;-90
2022/12/07 00:46:31;;;;;;;9.70;7.20;;;;;;;;;;6560909;28;20699;-90
2022/12/07 00:49:41;;;;;;;9.93;7.17;;;;;;;;;;6572243;28;20169;-90
2022/12/07 00:52:51;;;;;;;11.67;7.00;;;;;;;;;;6554462;28;20184;-90
2022/12/07 00:56:05;;;;;;;8.90;6.63;;;;;;;;;;6555194;28;20643;-90
2022/12/07 00:59:16;;;;;;;9.43;7.07;;;;;;;;;;6572267;28;20169;-90
2022/12/07 01:02:26;;;;;;;8.30;6.13;;;;;;;;;;6571805;28;20627;-90
2022/12/07 01:05:36;;;;;;;10.10;6.87;;;;;;;;;;6572141;28;20173;-90
2022/12/07 01:08:47;;;;;;;9.50;6.10;;;;;;;;;;6571750;28;20173;-90
2022/12/07 01:11:57;;;;;;;9.90;6.40;;;;;;;;;;6553987;28;20384;-89
2022/12/07 01:15:07;;;;;;;9.53;6.13;;;;;;;;;;6572785;28;20559;-90
2022/12/07 01:18:18;;;;;;;9.30;6.77;;;;;;;;;;6571912;28;20173;-90
2022/12/07 01:21:29;;;;;;;7.07;5.90;;;;;;;;;;6554068;28;20220;-90
2022/12/07 01:24:40;;;;;;;11.27;6.57;;;;;;;;;;6571138;28;20176;-91
2022/12/07 01:27:50;;;;;;;8.53;5.63;;;;;;;;;;6571687;28;20181;-91
2022/12/07 01:31:02;;;;;;;10.77;6.80;;;;;;;;;;6554362;28;20620;-91
2022/12/07 01:34:12;;;;;;;9.17;5.90;;;;;;;;;;6553165;28;20237;-92
2022/12/07 01:37:22;;;;;;;7.63;5.93;;;;;;;;;;6570525;28;20623;-91
2022/12/07 01:40:33;;;;;;;8.23;5.90;;;;;;;;;;6553242;28;20555;-91
2022/12/07 01:44:02;;;;;;;6.37;4.97;;;;;;;;;;6570581;28;20642;-91
2022/12/07 01:47:12;;;;;;;8.77;5.97;;;;;;;;;;6571567;28;20165;-91
2022/12/07 01:50:25;;;;;;;7.10;5.87;;;;;;;;;;6553916;28;20638;-91
2022/12/07 01:53:37;;;;;;;7.50;6.07;;;;;;;;;;6570310;28;20180;-91
2022/12/07 01:56:50;;;;;;;15.00;7.67;;;;;;;;;;6553039;28;20180;-90
2022/12/07 02:00:01;;;;;;;8.93;6.20;;;;;;;;;;6554113;28;20500;-90
2022/12/07 02:03:16;;;;;;;10.03;6.27;;;;;;;;;;6552863;28;20200;-90
2022/12/07 02:06:26;;;;;;;12.93;7.10;;;;;;;;;;6553955;28;20178;-91
2022/12/07 02:09:37;;;;;;;12.13;7.37;;;;;;;;;;6570482;28;20165;-90
2022/12/07 02:12:50;;;;;;;9.57;6.13;;;;;;;;;;6570808;28;20184;-91
2022/12/07 02:16:06;;;;;;;7.93;6.23;;;;;;;;;;6552836;28;20205;-91
2022/12/07 02:19:35;;;;;;;6.80;5.87;;;;;;;;;;6570313;28;20195;-90
2022/12/07 02:23:04;;;;;;;8.43;6.00;;;;;;;;;;6584695;28;20195;-91
2022/12/07 02:26:14;;;;;;;7.83;6.10;;;;;;;;;;6578232;28;20187;-90
2022/12/07 02:29:27;;;;;;;8.50;6.57;;;;;;;;;;6595633;28;20255;-90
2022/12/07 02:32:44;;;;;;;7.53;5.63;;;;;;;;;;6595974;28;20179;-90
2022/12/07 02:35:57;;;;;;;7.27;5.57;;;;;;;;;;6578915;28;20631;-90
2022/12/07 02:39:11;;;;;;;10.37;6.40;;;;;;;;;;6596133;28;20239;-91
2022/12/07 02:42:28;;;;;;;9.80;6.70;;;;;;;;;;6595444;28;20740;-90
2022/12/07 02:45:40;;;;;;;7.00;5.80;;;;;;;;;;6595821;28;20176;-90
2022/12/07 02:48:51;;;;;;;8.50;6.37;;;;;;;;;;6597672;28;20562;-90
2022/12/07 02:52:01;;;;;;;11.27;7.10;;;;;;;;;;6601269;28;20533;-90
2022/12/07 02:55:12;;;;;;;8.87;6.60;;;;;;;;;;6583163;28;20173;-90
2022/12/07 02:58:30;;;;;;;8.30;6.40;;;;;;;;;;6600493;28;20255;-90
2022/12/07 03:01:56;;;;;;;7.93;6.33;;;;;;;;;;6583386;28;20208;-90
2022/12/07 03:05:07;;;;;;;8.70;6.33;;;;;;;;;;6584057;28;20519;-91
2022/12/07 03:08:20;;;;;;;7.83;6.20;;;;;;;;;;6582970;28;20180;-90
2022/12/07 03:11:40;;;;;;;8.00;6.30;;;;;;;;;;6600247;28;20180;-90
2022/12/07 03:14:55;;;;;;;9.67;6.13;;;;;;;;;;6583498;28;20334;-90
2022/12/07 03:18:07;;;;;;;8.47;6.67;;;;;;;;;;6601045;28;20248;-90
2022/12/07 03:21:19;;;;;;;8.57;6.40;;;;;;;;;;6600400;28;20196;-90
2022/12/07 03:24:35;;;;;;;8.30;5.80;;;;;;;;;;6600243;28;20278;-89
2022/12/07 03:27:45;;;;;;;6.70;5.33;;;;;;;;;;6601221;28;20195;-90
2022/12/07 03:31:00;;;;;;;8.93;5.93;;;;;;;;;;6583490;28;20185;-90
2022/12/07 03:34:27;;;;;;;7.47;5.83;;;;;;;;;;6600309;28;20643;-90
2022/12/07 03:37:41;;;;;;;7.00;5.87;;;;;;;;;;6582254;28;20321;-91
2022/12/07 03:40:57;;;;;;;8.07;6.13;;;;;;;;;;6599759;28;20200;-91
2022/12/07 03:44:07;;;;;;;6.53;5.63;;;;;;;;;;6599810;28;20187;-91
2022/12/07 03:47:37;;;;;;;8.10;6.13;;;;;;;;;;6581829;28;20543;-91
2022/12/07 03:50:50;;;;;;;7.13;6.00;;;;;;;;;;6599383;28;20229;-91
2022/12/07 03:54:05;;;;;;;7.47;5.50;;;;;;;;;;6581982;28;20667;-91
2022/12/07 03:57:16;;;;;;;6.80;5.50;;;;;;;;;;6582547;28;20207;-91
2022/12/07 04:00:27;;;;;;;6.67;5.97;;;;;;;;;;6599568;28;20255;-91
2022/12/07 04:03:37;;;;;;;7.43;5.90;;;;;;;;;;6581531;28;20208;-91
2022/12/07 04:06:47;;;;;;;7.57;6.13;;;;;;;;;;6581921;28;20180;-91
2022/12/07 04:09:58;;;;;;;6.20;5.57;;;;;;;;;;6581537;28;20177;-91
2022/12/07 04:13:08;;;;;;;7.17;5.40;;;;;;;;;;6599231;28;20187;-91
2022/12/07 04:16:18;;;;;;;8.63;5.90;;;;;;;;;;6599080;28;20179;-91
2022/12/07 04:19:30;;;;;;;8.03;6.10;;;;;;;;;;6581296;28;20183;-91
2022/12/07 04:22:40;;;;;;;7.73;6.57;;;;;;;;;;6599704;28;20207;-91
2022/12/07 04:25:51;;;;;;;7.70;5.60;;;;;;;;;;6599219;28;20641;-91
2022/12/07 04:29:01;;;;;;;6.60;5.73;;;;;;;;;;6598448;28;20196;-91
2022/12/07 04:32:11;;;;;;;9.70;6.30;;;;;;;;;;6598645;28;20179;-91
2022/12/07 04:35:22;;;;;;;7.43;5.60;;;;;;;;;;6580790;28;20286;-91
2022/12/07 04:38:32;;;;;;;7.07;5.90;;;;;;;;;;6580576;28;20192;-91
2022/12/07 04:41:43;;;;;;;8.43;6.20;;;;;;;;;;6598450;28;20654;-91
2022/12/07 04:44:53;;;;;;;7.97;6.00;;;;;;;;;;6598253;28;20199;-91
2022/12/07 04:48:03;;;;;;;6.03;5.43;;;;;;;;;;6598187;28;20179;-91
2022/12/07 04:51:16;;;;;;;7.30;6.20;;;;;;;;;;6598445;28;20172;-91
2022/12/07 04:54:26;;;;;;;9.03;6.00;;;;;;;;;;6598698;28;20518;-91
2022/12/07 04:57:36;;;;;;;6.90;5.93;;;;;;;;;;6598626;28;20175;-91
2022/12/07 05:00:46;;;;;;;7.97;5.67;;;;;;;;;;6579962;28;20183;-91
2022/12/07 05:03:57;;;;;;;8.33;6.20;;;;;;;;;;6580230;28;20216;-91
2022/12/07 05:07:07;;;;;;;7.77;6.30;;;;;;;;;;6597037;28;20215;-91
2022/12/07 05:10:18;;;;;;;8.00;6.17;;;;;;;;;;6597552;28;20173;-91
2022/12/07 05:13:28;;;;;;;9.23;6.53;;;;;;;;;;6579700;28;20186;-91
2022/12/07 05:16:39;;;;;;;9.07;6.73;;;;;;;;;;6597894;28;20164;-91
2022/12/07 05:19:49;;;;;;;7.03;5.83;;;;;;;;;;6597082;28;20173;-91
2022/12/07 05:22:59;;;;;;;7.97;6.00;;;;;;;;;;6596890;28;20188;-91
2022/12/07 05:26:10;;;;;;;9.00;6.70;;;;;;;;;;6597275;28;20535;-91
2022/12/07 05:29:20;;;;;;;13.10;8.80;;;;;;;;;;6579416;28;20199;-91
2022/12/07 05:32:30;;;;;;;17.93;10.07;;;;;;;;;;6597097;28;20173;-91
2022/12/07 05:35:41;;;;;;;22.10;13.07;;;;;;;;;;6579076;28;20677;-91
2022/12/07 05:38:51;;;;;;;23.90;13.83;;;;;;;;;;6579292;28;20196;-91
2022/12/07 05:42:13;;;;;;;20.40;11.73;;;;;;;;;;6596848;28;20196;-91
2022/12/07 05:45:24;;;;;;;16.03;11.07;;;;;;;;;;6580007;28;20242;-91
2022/12/07 05:48:34;;;;;;;15.83;11.20;;;;;;;;;;6596383;28;20259;-91
2022/12/07 05:51:44;;;;;;;15.37;10.43;;;;;;;;;;6596647;28;20181;-91
2022/12/07 05:54:54;;;;;;;13.07;9.90;;;;;;;;;;6597443;28;20196;-92
2022/12/07 06:01:34;;;;;;;12.97;9.73;;;;;;;;;;6596514;28;20195;-91
2022/12/07 06:04:46;;;;;;;28.60;15.73;;;;;;;;;;6596428;28;20177;-91
2022/12/07 06:07:56;;;;;;;21.97;13.37;;;;;;;;;;6578697;28;20650;-92
2022/12/07 06:14:35;;;;;;;15.90;10.17;;;;;;;;;;6596789;28;20164;-91
2022/12/07 06:17:45;;;;;;;19.97;13.10;;;;;;;;;;6595977;28;20168;-91
2022/12/07 06:20:55;;;;;;;18.43;9.70;;;;;;;;;;6579294;28;20183;-91
2022/12/07 06:24:06;;;;;;;13.97;8.97;;;;;;;;;;6578327;28;20219;-91
2022/12/07 06:27:17;;;;;;;14.40;9.33;;;;;;;;;;6578440;28;20176;-91
2022/12/07 06:30:27;;;;;;;17.33;11.37;;;;;;;;;;6596160;28;20180;-91
2022/12/07 06:33:37;;;;;;;12.07;8.40;;;;;;;;;;6578358;28;20228;-91
2022/12/07 06:36:51;;;;;;;7.87;6.73;;;;;;;;;;6596031;28;20211;-91
2022/12/07 06:40:01;;;;;;;9.10;6.87;;;;;;;;;;6578528;28;20211;-91
2022/12/07 06:43:12;;;;;;;14.40;8.53;;;;;;;;;;6595868;28;20188;-91
2022/12/07 06:46:22;;;;;;;12.07;7.47;;;;;;;;;;6595564;28;20518;-91
2022/12/07 06:49:32;;;;;;;9.97;7.13;;;;;;;;;;6596499;28;20204;-91
2022/12/07 06:52:43;;;;;;;12.83;7.20;;;;;;;;;;6577194;28;20230;-91
2022/12/07 06:55:53;;;;;;;10.23;7.43;;;;;;;;;;6576971;28;20506;-91
2022/12/07 06:59:06;;;;;;;14.60;8.90;;;;;;;;;;6577737;28;20269;-91
2022/12/07 07:02:16;;;;;;;14.20;8.90;;;;;;;;;;6577464;28;20208;-91
2022/12/07 07:05:27;;;;;;;16.67;8.23;;;;;;;;;;6577691;28;20239;-91
2022/12/07 07:08:37;;;;;;;13.07;7.90;;;;;;;;;;6594979;28;20196;-91
2022/12/07 07:11:47;;;;;;;12.97;7.77;;;;;;;;;;6594986;28;20579;-91
2022/12/07 07:14:58;;;;;;;19.83;11.43;;;;;;;;;;6577143;28;20188;-91
2022/12/07 07:18:08;;;;;;;16.43;10.40;;;;;;;;;;6594544;28;20611;-91
2022/12/07 07:21:18;;;;;;;13.57;9.73;;;;;;;;;;6577130;28;20236;-91
2022/12/07 07:24:29;;;;;;;14.27;9.20;;;;;;;;;;6595032;28;20588;-91
2022/12/07 07:27:39;;;;;;;13.87;9.33;;;;;;;;;;6594797;28;20184;-92
2022/12/07 07:30:50;;;;;;;22.77;11.93;;;;;;;;;;6576581;28;20218;-91
2022/12/07 07:34:00;;;;;;;18.37;11.20;;;;;;;;;;6594825;28;20228;-91
2022/12/07 07:37:12;;;;;;;12.87;8.53;;;;;;;;;;6599365;28;20207;-91
2022/12/07 07:40:22;;;;;;;13.90;9.23;;;;;;;;;;6598990;28;20192;-91
2022/12/07 07:43:33;;;;;;;18.30;10.73;;;;;;;;;;6598714;28;20203;-91
2022/12/07 07:46:43;;;;;;;18.27;11.57;;;;;;;;;;6580953;28;20187;-91
2022/12/07 07:49:53;;;;;;;18.90;10.93;;;;;;;;;;6580762;28;20176;-91
2022/12/07 07:53:04;;;;;;;17.17;10.20;;;;;;;;;;6580720;28;20597;-91
2022/12/07 07:56:14;;;;;;;9.93;8.40;;;;;;;;;;6598986;28;20177;-92
2022/12/07 07:59:25;;;;;;;12.07;7.50;;;;;;;;;;6584279;28;20503;-91
2022/12/07 08:02:35;;;;;;;8.43;6.50;;;;;;;;;;6609312;28;20208;-91
2022/12/07 08:05:45;;;;;;;11.10;7.07;;;;;;;;;;6581078;28;20180;-91
2022/12/07 08:08:57;;;;;;;9.70;5.83;;;;;;;;;;6598579;28;20516;-91
2022/12/07 08:12:08;;;;;;;9.43;6.73;;;;;;;;;;6581143;28;20646;-91
2022/12/07 08:15:18;;;;;;;7.40;5.80;;;;;;;;;;6598801;28;20177;-91
2022/12/07 08:18:28;;;;;;;10.13;7.30;;;;;;;;;;6598826;28;20168;-91
2022/12/07 08:21:38;;;;;;;9.57;7.60;;;;;;;;;;6580590;28;20227;-91
2022/12/07 08:24:49;;;;;;;12.43;8.40;;;;;;;;;;6579812;28;20181;-91
2022/12/07 08:28:00;;;;;;;10.77;7.80;;;;;;;;;;6597262;28;20172;-92
2022/12/07 08:31:15;;;;;;;10.33;7.63;;;;;;;;;;6579694;28;20187;-91
2022/12/07 08:34:25;;;;;;;8.73;7.23;;;;;;;;;;6579120;28;20557;-91
2022/12/07 08:37:36;;;;;;;12.33;8.13;;;;;;;;;;6597395;28;20180;-91
2022/12/07 08:40:55;;;;;;;7.67;6.60;;;;;;;;;;6576767;28;20258;-91
2022/12/07 08:44:06;;;;;;;11.10;7.20;;;;;;;;;;6571180;28;20717;-91
2022/12/07 08:47:16;;;;;;;9.57;7.20;;;;;;;;;;6596907;28;20195;-91
2022/12/07 08:50:27;;;;;;;8.87;7.43;;;;;;;;;;6571181;28;20176;-91
2022/12/07 08:53:38;;;;;;;11.43;8.10;;;;;;;;;;6597311;28;20200;-92
2022/12/07 08:56:50;;;;;;;8.93;7.30;;;;;;;;;;6578276;28;20173;-92
2022/12/07 09:00:01;;;;;;;9.80;7.37;;;;;;;;;;6595912;28;20280;-92
2022/12/07 09:03:11;;;;;;;14.70;10.43;;;;;;;;;;6578020;28;20204;-92
2022/12/07 09:06:21;;;;;;;14.83;9.87;;;;;;;;;;6578808;28;20172;-91
2022/12/07 09:09:32;;;;;;;12.53;8.97;;;;;;;;;;6595693;28;20761;-92
2022/12/07 09:12:42;;;;;;;12.93;10.03;;;;;;;;;;6595644;28;20219;-91
2022/12/07 09:15:52;;;;;;;12.77;10.30;;;;;;;;;;6595305;28;20172;-91
2022/12/07 09:19:03;;;;;;;15.97;11.47;;;;;;;;;;6595256;28;20179;-91
2022/12/07 09:22:13;;;;;;;18.77;11.57;;;;;;;;;;6577774;28;20203;-91
2022/12/07 09:25:23;;;;;;;11.97;8.80;;;;;;;;;;6569884;28;20207;-91
2022/12/07 09:28:34;;;;;;;10.97;7.80;;;;;;;;;;6595389;28;20173;-91
2022/12/07 09:31:44;;;;;;;9.50;7.23;;;;;;;;;;6594988;28;20172;-91
2022/12/07 09:34:55;;;;;;;12.50;9.67;;;;;;;;;;6595527;28;20554;-91
2022/12/07 09:38:05;;;;;;;12.23;9.30;;;;;;;;;;6595686;28;20299;-90
2022/12/07 09:41:16;;;;;;;11.37;8.03;;;;;;;;;;6577929;28;20176;-90
2022/12/07 09:44:27;;;;;;;10.07;7.53;;;;;;;;;;6578262;28;20188;-91
2022/12/07 09:47:37;;;;;;;14.87;10.13;;;;;;;;;;6577053;28;20280;-91
2022/12/07 09:50:48;;;;;;;9.37;7.97;;;;;;;;;;6594483;28;20339;-91
2022/12/07 09:54:00;;;;;;;12.87;8.07;;;;;;;;;;6592265;28;20192;-91
2022/12/07 09:57:12;;;;;;;10.90;8.20;;;;;;;;;;6594060;28;20169;-90
2022/12/07 10:00:23;;;;;;;11.80;8.43;;;;;;;;;;6595249;28;20235;-90
2022/12/07 10:03:35;;;;;;;18.53;12.10;;;;;;;;;;6594170;28;20211;-91
2022/12/07 10:06:47;;;;;;;14.10;10.10;;;;;;;;;;6595156;28;20173;-91
2022/12/07 10:09:58;;;;;;;9.60;8.17;;;;;;;;;;6576913;28;20588;-91
2022/12/07 10:13:09;;;;;;;11.80;8.47;;;;;;;;;;6595166;28;20185;-91
2022/12/07 10:16:27;;;;;;;12.17;9.37;;;;;;;;;;6574216;28;20175;-91
2022/12/07 10:19:37;;;;;;;14.23;9.77;;;;;;;;;;6594777;28;20232;-90
2022/12/07 10:22:59;;;;;;;16.27;11.17;;;;;;;;;;6594494;28;20253;-91
2022/12/07 10:26:19;;;;;;;15.23;10.60;;;;;;;;;;6592545;28;20643;-91
2022/12/07 10:29:39;;;;;;;14.07;10.23;;;;;;;;;;6576699;28;20188;-91
2022/12/07 10:32:49;;;;;;;12.53;8.70;;;;;;;;;;6594484;28;20274;-90
2022/12/07 10:36:00;;;;;;;14.80;9.87;;;;;;;;;;6593623;28;20228;-91
2022/12/07 10:39:12;;;;;;;12.87;8.80;;;;;;;;;;6575793;28;20299;-92
2022/12/07 10:42:27;;;;;;;9.93;8.00;;;;;;;;;;6594180;28;20604;-91
2022/12/07 10:45:43;;;;;;;9.83;7.43;;;;;;;;;;6575702;28;20184;-91
2022/12/07 10:48:56;;;;;;;9.50;7.90;;;;;;;;;;6592128;28;20259;-91
2022/12/07 10:52:25;;;;;;;10.00;8.57;;;;;;;;;;6593847;28;20172;-90
2022/12/07 10:55:41;;;;;;;13.10;10.27;;;;;;;;;;6592777;28;20172;-90
2022/12/07 10:59:10;;;;;;;10.57;8.93;;;;;;;;;;6592300;28;20164;-91
2022/12/07 11:02:26;;;;;;;11.07;8.40;;;;;;;;;;6592293;28;20207;-90
2022/12/07 11:05:44;;;;;;;11.90;9.43;;;;;;;;;;6576158;28;20172;-91
2022/12/07 11:09:02;;;;;;;10.57;8.33;;;;;;;;;;6592122;28;20177;-90
2022/12/07 11:12:25;;;;;;;8.37;6.77;;;;;;;;;;6597394;28;20165;-91
2022/12/07 11:15:55;;;;;;;7.40;6.27;;;;;;;;;;6572563;28;20180;-91
2022/12/07 11:19:17;;;;;;;9.67;7.00;;;;;;;;;;6561132;28;20184;-90
2022/12/07 11:22:42;;;;;;;9.57;7.37;;;;;;;;;;6573464;28;20243;-90
2022/12/07 11:25:57;;;;;;;7.40;6.50;;;;;;;;;;6580014;28;20203;-90
2022/12/07 11:29:27;;;;;;;7.13;6.30;;;;;;;;;;6599564;28;20185;-90
2022/12/07 11:32:50;;;;;;;7.50;6.20;;;;;;;;;;6600018;28;20452;-90
2022/12/07 11:36:00;;;;;;;8.77;6.63;;;;;;;;;;6580937;28;20232;-90
2022/12/07 11:39:30;;;;;;;10.97;8.17;;;;;;;;;;6599456;28;20724;-90
2022/12/07 11:42:52;;;;;;;8.33;7.00;;;;;;;;;;6599367;28;20203;-90
2022/12/07 11:46:08;;;;;;;6.80;5.40;;;;;;;;;;6580995;28;20173;-90
2022/12/07 11:49:27;;;;;;;6.53;5.60;;;;;;;;;;6580777;28;20601;-90
2022/12/07 11:52:43;;;;;;;6.47;5.80;;;;;;;;;;6598707;28;20176;-90
2022/12/07 11:55:54;;;;;;;6.37;5.50;;;;;;;;;;6598547;28;20161;-90
2022/12/07 11:59:10;;;;;;;6.90;5.90;;;;;;;;;;6598120;28;20177;-90
2022/12/07 12:02:28;;;;;;;7.20;5.37;;;;;;;;;;6581067;28;20659;-90
2022/12/07 12:05:39;;;;;;;6.93;5.00;;;;;;;;;;6597973;28;20263;-90
2022/12/07 12:08:49;;;;;;;6.57;5.30;;;;;;;;;;6580315;28;20184;-91
2022/12/07 12:12:02;;;;;;;6.40;5.57;;;;;;;;;;6598102;28;20172;-90
2022/12/07 12:15:15;;;;;;;6.20;5.40;;;;;;;;;;6599005;28;20169;-90
2022/12/07 12:18:32;;;;;;;5.50;5.00;;;;;;;;;;6598553;28;20196;-90
2022/12/07 12:21:45;;;;;;;6.20;5.00;;;;;;;;;;6580349;28;20646;-90
2022/12/07 12:24:56;;;;;;;7.97;6.07;;;;;;;;;;6579888;28;20307;-90
2022/12/07 12:28:18;;;;;;;14.20;10.30;;;;;;;;;;6597410;28;20168;-90
2022/12/07 12:31:39;;;;;;;8.20;6.73;;;;;;;;;;6597723;28;20169;-90
2022/12/07 12:34:52;;;;;;;7.47;6.33;;;;;;;;;;6597420;28;20643;-90
2022/12/07 12:38:21;;;;;;;7.10;5.80;;;;;;;;;;6596700;28;20172;-91
2022/12/07 12:41:35;;;;;;;6.70;5.50;;;;;;;;;;6571694;28;20295;-91
2022/12/07 12:45:16;;;;;;;11.30;7.80;;;;;;;;;;6594074;28;20176;-90
2022/12/07 12:48:28;;;;;;;11.83;8.10;;;;;;;;;;6577069;28;20219;-90
2022/12/07 12:51:40;;;;;;;9.13;8.03;;;;;;;;;;6596094;28;20173;-90
2022/12/07 12:55:08;;;;;;;10.87;8.57;;;;;;;;;;6596540;28;20302;-91
2022/12/07 12:58:18;;;;;;;11.20;8.27;;;;;;;;;;6594000;28;20176;-91
2022/12/07 13:01:35;;;;;;;10.00;7.20;;;;;;;;;;6595842;28;20168;-91
2022/12/07 13:04:57;;;;;;;9.23;7.77;;;;;;;;;;6593496;28;20168;-90
2022/12/07 13:08:16;;;;;;;11.00;8.37;;;;;;;;;;6593864;28;20263;-90
2022/12/07 13:11:27;;;;;;;13.00;9.10;;;;;;;;;;6593242;28;20291;-90
2022/12/07 13:14:39;;;;;;;11.77;8.93;;;;;;;;;;6595487;28;20172;-91
2022/12/07 13:17:56;;;;;;;13.70;8.50;;;;;;;;;;6596176;28;20179;-91
2022/12/07 13:21:07;;;;;;;11.87;8.70;;;;;;;;;;6591802;28;20264;-91
2022/12/07 13:24:18;;;;;;;10.90;8.37;;;;;;;;;;6595218;28;20204;-91
2022/12/07 13:27:28;;;;;;;10.93;8.40;;;;;;;;;;6577787;28;20191;-91
2022/12/07 13:30:44;;;;;;;14.07;10.23;;;;;;;;;;6594528;28;20176;-90
2022/12/07 13:33:55;;;;;;;12.67;10.17;;;;;;;;;;6594809;28;20223;-91
2022/12/07 13:37:20;;;;;;;18.07;14.37;;;;;;;;;;6593212;28;20501;-91
2022/12/07 13:40:30;;;;;;;19.03;14.13;;;;;;;;;;6575126;28;20281;-90
2022/12/07 13:43:54;;;;;;;14.70;9.93;;;;;;;;;;6595040;28;20204;-90
2022/12/07 13:47:23;;;;;;;19.53;15.20;;;;;;;;;;6593572;28;20204;-90
2022/12/07 13:50:33;;;;;;;28.67;20.03;;;;;;;;;;6592662;28;20183;-91
2022/12/07 13:53:48;;;;;;;23.70;12.47;;;;;;;;;;6596178;28;20537;-91
2022/12/07 13:56:59;;;;;;;14.73;10.70;;;;;;;;;;6594996;28;20591;-91
2022/12/07 14:00:17;;;;;;;22.77;15.73;;;;;;;;;;6571496;28;20176;-91
2022/12/07 14:03:29;;;;;;;16.70;11.47;;;;;;;;;;6572547;28;20266;-91
2022/12/07 14:06:47;;;;;;;17.23;12.17;;;;;;;;;;6594502;28;20176;-91
2022/12/07 14:09:59;;;;;;;17.03;12.43;;;;;;;;;;6594644;28;20203;-91
2022/12/07 14:13:28;;;;;;;14.53;9.83;;;;;;;;;;6595426;28;20230;-90
2022/12/07 14:16:39;;;;;;;15.73;10.70;;;;;;;;;;6595388;28;20168;-91
2022/12/07 14:19:49;;;;;;;16.33;10.17;;;;;;;;;;6595624;28;20172;-90
2022/12/07 14:23:08;;;;;;;16.00;11.50;;;;;;;;;;6595164;28;20203;-90
2022/12/07 14:26:19;;;;;;;14.67;10.30;;;;;;;;;;6578132;28;20196;-90
2022/12/07 14:29:32;;;;;;;15.03;10.53;;;;;;;;;;6595054;28;20251;-90
2022/12/07 14:32:48;;;;;;;15.50;10.67;;;;;;;;;;6577251;28;20184;-90
2022/12/07 14:35:58;;;;;;;18.60;13.40;;;;;;;;;;6595528;28;20675;-90
2022/12/07 14:39:08;;;;;;;15.50;10.40;;;;;;;;;;6577694;28;20228;-90
2022/12/07 14:42:19;;;;;;;17.90;11.43;;;;;;;;;;6595451;28;20222;-90
2022/12/07 14:45:30;;;;;;;16.53;11.63;;;;;;;;;;6599805;28;20198;-90
2022/12/07 14:48:40;;;;;;;20.53;13.83;;;;;;;;;;6582595;28;20636;-90
2022/12/07 14:51:51;;;;;;;17.07;11.03;;;;;;;;;;6600322;28;20179;-90
2022/12/07 14:55:01;;;;;;;17.23;11.60;;;;;;;;;;6600530;28;20654;-91
2022/12/07 14:58:13;;;;;;;19.23;12.00;;;;;;;;;;6601055;28;20175;-90
2022/12/07 15:01:23;;;;;;;17.30;11.67;;;;;;;;;;6601243;28;20251;-90
2022/12/07 15:04:34;;;;;;;17.13;11.80;;;;;;;;;;6600492;28;20615;-90
2022/12/07 15:07:45;;;;;;;15.90;11.23;;;;;;;;;;6583023;28;20291;-90
2022/12/07 15:10:55;;;;;;;16.83;11.93;;;;;;;;;;6600390;28;20179;-90
2022/12/07 15:14:08;;;;;;;23.47;15.50;;;;;;;;;;6600521;28;20172;-91
2022/12/07 15:17:18;;;;;;;20.77;13.80;;;;;;;;;;6599946;28;20176;-91
2022/12/07 15:20:29;;;;;;;20.03;13.70;;;;;;;;;;6599748;28;20164;-91
2022/12/07 15:23:39;;;;;;;20.77;13.33;;;;;;;;;;6599286;28;20563;-90
2022/12/07 15:26:49;;;;;;;19.93;12.87;;;;;;;;;;6599252;28;20168;-90
2022/12/07 15:30:00;;;;;;;19.60;13.10;;;;;;;;;;6599572;28;20173;-90
2022/12/07 15:33:11;;;;;;;22.20;14.53;;;;;;;;;;6581784;28;20176;-90
2022/12/07 15:36:23;;;;;;;18.73;12.77;;;;;;;;;;6582173;28;20537;-90
2022/12/07 15:39:33;;;;;;;24.13;15.10;;;;;;;;;;6599143;28;20193;-90
2022/12/07 15:42:44;;;;;;;19.93;13.30;;;;;;;;;;6582162;28;20685;-90
2022/12/07 15:45:54;;;;;;;20.03;12.87;;;;;;;;;;6599316;28;20180;-90
2022/12/07 15:49:15;;;;;;;23.80;13.67;;;;;;;;;;6599366;28;20184;-91
2022/12/07 15:52:25;;;;;;;16.13;11.10;;;;;;;;;;6581159;28;20172;-91
2022/12/07 15:55:38;;;;;;;18.07;12.63;;;;;;;;;;6598829;28;20582;-91
2022/12/07 15:58:48;;;;;;;19.17;11.30;;;;;;;;;;6599638;28;20172;-90
2022/12/07 16:01:58;;;;;;;15.00;10.53;;;;;;;;;;6599822;28;20654;-90
2022/12/07 16:05:09;;;;;;;15.73;10.70;;;;;;;;;;6581682;28;20187;-90
2022/12/07 16:08:19;;;;;;;16.90;11.43;;;;;;;;;;6582721;28;20508;-90
2022/12/07 16:11:29;;;;;;;17.90;12.17;;;;;;;;;;6581803;28;20271;-90
2022/12/07 16:14:40;;;;;;;24.73;15.23;;;;;;;;;;6599261;28;20172;-90
2022/12/07 16:17:51;;;;;;;16.93;11.73;;;;;;;;;;6580870;28;20267;-90
2022/12/07 16:21:01;;;;;;;18.53;11.53;;;;;;;;;;6598745;28;20179;-90
2022/12/07 16:24:14;;;;;;;22.00;14.00;;;;;;;;;;6598531;28;20208;-90
2022/12/07 16:27:25;;;;;;;21.60;13.93;;;;;;;;;;6598505;28;20180;-90
2022/12/07 16:30:35;;;;;;;19.80;13.60;;;;;;;;;;6580975;28;20338;-91
2022/12/07 16:33:45;;;;;;;19.30;13.23;;;;;;;;;;6598346;28;20224;-90
2022/12/07 16:36:56;;;;;;;19.47;12.33;;;;;;;;;;6580722;28;20218;-90
2022/12/07 16:40:06;;;;;;;19.53;12.93;;;;;;;;;;6580132;28;20686;-91
2022/12/07 16:43:17;;;;;;;18.43;11.40;;;;;;;;;;6598013;28;20200;-90
2022/12/07 16:46:27;;;;;;;19.67;12.43;;;;;;;;;;6598756;28;20176;-90
2022/12/07 16:49:37;;;;;;;18.93;11.63;;;;;;;;;;6598677;28;20194;-90
2022/12/07 16:52:47;;;;;;;16.00;11.13;;;;;;;;;;6598170;28;20177;-91
2022/12/07 16:55:58;;;;;;;18.77;12.27;;;;;;;;;;6580389;28;20267;-90
2022/12/07 16:59:08;;;;;;;17.53;11.17;;;;;;;;;;6580643;28;20623;-90
2022/12/07 17:02:18;;;;;;;13.63;9.70;;;;;;;;;;6580226;28;20228;-90
2022/12/07 17:05:29;;;;;;;18.83;12.57;;;;;;;;;;6580076;28;20579;-91
2022/12/07 17:08:39;;;;;;;18.10;11.67;;;;;;;;;;6597480;28;20175;-90
2022/12/07 17:11:50;;;;;;;18.27;11.77;;;;;;;;;;6580724;28;20229;-90
2022/12/07 17:18:30;;;;;;;18.27;11.53;;;;;;;;;;6597015;28;20183;-91
2022/12/07 17:21:41;;;;;;;19.40;11.97;;;;;;;;;;6578787;28;20231;-90
2022/12/07 17:24:52;;;;;;;21.53;13.50;;;;;;;;;;6596726;28;20181;-90
2022/12/07 17:28:03;;;;;;;13.47;10.10;;;;;;;;;;6578847;28;20168;-90
2022/12/07 17:31:14;;;;;;;18.03;11.17;;;;;;;;;;6576501;28;20169;-90
2022/12/07 17:34:24;;;;;;;17.77;11.67;;;;;;;;;;6597179;28;20255;-90
2022/12/07 17:37:35;;;;;;;21.40;12.73;;;;;;;;;;6579416;28;20173;-90
2022/12/07 17:40:45;;;;;;;17.80;11.43;;;;;;;;;;6596978;28;20572;-90
2022/12/07 17:43:56;;;;;;;18.60;12.40;;;;;;;;;;6595847;28;20208;-90
2022/12/07 17:47:06;;;;;;;22.57;13.03;;;;;;;;;;6596230;28;20179;-90
2022/12/07 17:53:09;;;;;;;20.63;12.57;;;;;;;;;;6596489;28;20172;-91
2022/12/07 17:53:47;;;;;;;16.43;10.10;;;;;;;;;;6594557;28;20207;-90
2022/12/07 17:56:58;;;;;;;16.37;10.47;;;;;;;;;;6596777;28;20169;-90
2022/12/07 18:00:10;;;;;;;16.63;10.33;;;;;;;;;;6597452;28;20168;-89
2022/12/07 18:03:20;;;;;;;14.27;9.57;;;;;;;;;;6596554;28;20232;-90
2022/12/07 18:06:31;;;;;;;12.03;8.63;;;;;;;;;;6596944;28;20226;-90
2022/12/07 18:09:41;;;;;;;14.60;8.97;;;;;;;;;;6578753;28;20176;-90
2022/12/07 18:13:34;;;;;;;11.90;8.40;;;;;;;;;;6596435;28;20538;-90
2022/12/07 18:16:23;;;;;;;13.53;9.30;;;;;;;;;;6595759;28;20195;-90
2022/12/07 18:19:36;;;;;;;14.07;8.33;;;;;;;;;;6578323;28;20168;-89
2022/12/07 18:22:46;;;;;;;15.33;9.77;;;;;;;;;;6596521;28;20204;-90
2022/12/07 18:25:56;;;;;;;14.70;9.53;;;;;;;;;;6578412;28;20271;-90
2022/12/07 18:29:07;;;;;;;13.87;9.47;;;;;;;;;;6578747;28;20176;-89
2022/12/07 18:32:17;;;;;;;12.97;7.73;;;;;;;;;;6578424;28;20176;-90
2022/12/07 18:35:28;;;;;;;13.83;8.83;;;;;;;;;;6596520;28;20274;-89
2022/12/07 18:38:38;;;;;;;13.70;9.47;;;;;;;;;;6595994;28;20196;-89
2022/12/07 18:41:48;;;;;;;13.00;9.40;;;;;;;;;;6595463;28;20699;-89
2022/12/07 18:44:59;;;;;;;12.37;8.53;;;;;;;;;;6595936;28;20682;-90
2022/12/07 18:48:09;;;;;;;12.47;8.33;;;;;;;;;;6596186;28;20215;-90
2022/12/07 18:51:19;;;;;;;11.30;7.83;;;;;;;;;;6577853;28;20623;-90
2022/12/07 18:54:30;;;;;;;10.93;7.97;;;;;;;;;;6596136;28;20251;-90
2022/12/07 18:57:40;;;;;;;11.30;8.57;;;;;;;;;;6595493;28;20264;-91
2022/12/07 19:00:51;;;;;;;14.27;9.13;;;;;;;;;;6594443;28;20181;-90
2022/12/07 19:04:02;;;;;;;22.40;11.60;;;;;;;;;;6594422;28;20204;-90
2022/12/07 19:07:12;;;;;;;16.23;10.63;;;;;;;;;;6594338;28;20184;-90
2022/12/07 19:10:23;;;;;;;14.93;10.10;;;;;;;;;;6595455;28;20184;-90